Time;durP1;ratioP1;P1;durP2;ratioP2;P2;SDS_P1;SDS_P2;PMS_P1;PMS_P2;Temp;Humidity;BMP_temperature;BMP_pressure;BME280_temperature;BME280_humidity;BME280_pressure;Samples;Min_cycle;Max_cycle;Signal;HPM_P1;HPM_P2
2023/10/17 00:00:49;0.00;0.00;0.62;0.00;0.00;0.62;3.60;2.27;;;23.30;26.40;;;;;;2264287;61;20360;-64
2023/10/17 00:03:37;0.00;0.00;0.62;0.00;0.00;0.62;2.10;1.70;;;23.30;26.50;;;;;;2264270;61;20466;-58
2023/10/17 00:06:22;0.00;0.00;0.62;0.00;0.00;0.62;3.17;2.47;;;23.30;26.40;;;;;;2264413;61;20787;-62
2023/10/17 00:09:07;0.00;0.00;0.62;0.00;0.00;0.62;2.97;2.10;;;23.30;26.50;;;;;;2263976;61;20368;-57
2023/10/17 00:17:37;0.00;0.00;0.62;0.00;0.00;0.62;2.50;1.87;;;23.30;26.40;;;;;;2264491;61;20380;-59
2023/10/17 00:20:24;0.00;0.00;0.62;0.00;0.00;0.62;2.87;2.10;;;23.30;26.50;;;;;;2264292;61;20465;-58
2023/10/17 00:23:14;0.00;0.00;0.62;0.00;0.00;0.62;2.53;2.10;;;23.30;26.40;;;;;;2264215;61;20796;-61
2023/10/17 00:26:03;0.00;0.00;0.62;0.00;0.00;0.62;3.10;2.27;;;23.30;26.50;;;;;;2261051;61;20408;-62
2023/10/17 00:28:52;0.00;0.00;0.62;0.00;0.00;0.62;2.90;2.03;;;23.30;26.40;;;;;;2264029;61;20356;-62
2023/10/17 00:31:40;0.00;0.00;0.62;0.00;0.00;0.62;2.67;2.13;;;23.30;26.50;;;;;;2261122;61;20363;-61
2023/10/17 00:34:25;0.00;0.00;0.62;0.00;0.00;0.62;2.63;2.10;;;23.30;26.50;;;;;;2263639;61;20369;-59
2023/10/17 00:37:14;0.00;0.00;0.62;0.00;0.00;0.62;2.90;2.00;;;23.30;26.50;;;;;;2261251;61;20426;-64
2023/10/17 00:39:59;0.00;0.00;0.62;0.00;0.00;0.62;2.87;2.00;;;23.20;26.40;;;;;;2264056;61;20766;-60
2023/10/17 00:42:44;0.00;0.00;0.62;0.00;0.00;0.62;3.00;2.30;;;23.20;26.40;;;;;;2264321;61;20396;-59
2023/10/17 00:45:29;0.00;0.00;0.62;0.00;0.00;0.62;2.63;2.20;;;23.20;26.40;;;;;;2264317;61;20364;-62
2023/10/17 00:48:22;0.00;0.00;0.62;0.00;0.00;0.62;3.13;2.30;;;23.20;26.40;;;;;;2263714;61;20431;-66
2023/10/17 00:51:08;0.00;0.00;0.62;0.00;0.00;0.62;2.47;2.00;;;23.20;26.40;;;;;;2261094;61;20384;-59
2023/10/17 00:54:00;0.00;0.00;0.62;0.00;0.00;0.62;3.07;1.90;;;23.20;26.40;;;;;;2264528;61;20404;-61
2023/10/17 00:56:45;0.00;0.00;0.62;0.00;0.00;0.62;2.23;1.80;;;23.20;26.40;;;;;;2260900;61;20356;-58
2023/10/17 00:59:30;0.00;0.00;0.62;0.00;0.00;0.62;2.60;1.90;;;23.20;26.40;;;;;;2264009;61;20371;-63
2023/10/17 01:02:15;0.00;0.00;0.62;0.00;0.00;0.62;2.83;2.00;;;23.20;26.40;;;;;;2264345;61;20431;-58
2023/10/17 01:05:01;0.00;0.00;0.62;0.00;0.00;0.62;3.80;2.80;;;23.20;26.40;;;;;;2264336;61;20372;-58
2023/10/17 01:07:47;0.00;0.00;0.62;0.00;0.00;0.62;2.43;1.90;;;23.20;26.40;;;;;;2273407;61;20363;-59
2023/10/17 01:10:32;0.00;0.00;0.62;0.00;0.00;0.62;2.17;1.77;;;23.20;26.40;;;;;;2268290;61;20409;-59
2023/10/17 01:13:17;0.00;0.00;0.62;0.00;0.00;0.62;2.50;1.97;;;23.20;26.40;;;;;;2259701;61;20401;-62
2023/10/17 01:16:51;0.00;0.00;0.62;0.00;0.00;0.62;2.87;2.13;;;23.20;26.40;;;;;;2265075;61;20399;-60
2023/10/17 01:19:36;0.00;0.00;0.62;0.00;0.00;0.62;2.57;2.00;;;23.20;26.40;;;;;;2266776;61;20409;-58
2023/10/17 01:22:22;0.00;0.00;0.62;0.00;0.00;0.62;2.47;1.80;;;23.10;26.30;;;;;;2268909;61;20692;-60
2023/10/17 01:25:24;0.00;0.00;0.62;0.00;0.00;0.62;2.40;1.87;;;23.20;26.40;;;;;;2268927;61;20398;-62
2023/10/17 01:28:08;0.00;0.00;0.62;0.00;0.00;0.62;2.80;2.33;;;23.10;26.40;;;;;;2262791;61;21059;-60
2023/10/17 01:30:55;0.00;0.00;0.62;0.00;0.00;0.62;2.63;2.17;;;23.10;26.30;;;;;;2268821;61;20398;-61
2023/10/17 01:33:42;0.00;0.00;0.62;0.00;0.00;0.62;3.00;2.13;;;23.10;26.30;;;;;;2305674;56;20423;-57
2023/10/17 01:36:27;0.00;0.00;0.62;0.00;0.00;0.62;3.47;2.30;;;23.10;26.30;;;;;;2268979;61;20405;-57
2023/10/17 01:39:13;0.00;0.00;0.62;0.00;0.00;0.62;3.00;2.23;;;23.20;26.40;;;;;;2265460;61;20362;-58
2023/10/17 01:41:59;0.00;0.00;0.62;0.00;0.00;0.62;2.13;1.63;;;23.20;26.40;;;;;;2265783;61;20391;-59
2023/10/17 01:44:44;0.00;0.00;0.62;0.00;0.00;0.62;4.17;2.83;;;23.10;26.30;;;;;;2269061;61;20391;-56
2023/10/17 01:47:28;0.00;0.00;0.62;0.00;0.00;0.62;3.70;2.30;;;23.10;26.30;;;;;;2268144;61;20398;-64
2023/10/17 01:50:15;0.00;0.00;0.62;0.00;0.00;0.62;2.97;2.17;;;23.10;26.30;;;;;;2268870;61;20347;-61
2023/10/17 01:53:02;0.00;0.00;0.62;0.00;0.00;0.62;2.50;1.97;;;23.10;26.30;;;;;;2265532;61;20872;-59
2023/10/17 01:56:02;0.00;0.00;0.62;0.00;0.00;0.62;2.93;2.20;;;23.10;26.30;;;;;;2268883;61;20382;-56
2023/10/17 01:58:48;0.00;0.00;0.62;0.00;0.00;0.62;2.70;1.90;;;23.10;26.30;;;;;;2265307;61;20363;-56
2023/10/17 02:01:36;0.00;0.00;0.62;0.00;0.00;0.62;2.40;2.00;;;23.10;26.30;;;;;;2265708;61;20391;-57
2023/10/17 02:04:21;0.00;0.00;0.62;0.00;0.00;0.62;2.23;1.87;;;23.10;26.30;;;;;;2268822;61;20366;-63
2023/10/17 02:07:06;0.00;0.00;0.62;0.00;0.00;0.62;2.63;1.90;;;23.10;26.30;;;;;;2268853;61;20486;-62
2023/10/17 02:09:55;0.00;0.00;0.62;0.00;0.00;0.62;3.10;2.33;;;23.10;26.30;;;;;;2268183;61;20986;-58
2023/10/17 02:12:41;0.00;0.00;0.62;0.00;0.00;0.62;3.30;2.13;;;23.10;26.30;;;;;;2268787;61;20375;-59
2023/10/17 02:15:28;0.00;0.00;0.62;0.00;0.00;0.62;2.70;2.00;;;23.10;26.30;;;;;;2268801;61;20363;-58
2023/10/17 02:18:13;0.00;0.00;0.62;0.00;0.00;0.62;2.50;1.80;;;23.10;26.30;;;;;;2264998;61;20812;-60
2023/10/17 02:21:04;0.00;0.00;0.62;0.00;0.00;0.62;2.60;1.90;;;23.10;26.30;;;;;;2265568;61;20891;-61
2023/10/17 02:23:51;0.00;0.00;0.62;0.00;0.00;0.62;3.57;2.70;;;23.10;26.30;;;;;;2265496;61;20411;-55
2023/10/17 02:26:46;0.00;0.00;0.62;0.00;0.00;0.62;2.70;2.10;;;23.10;26.30;;;;;;2265658;61;20416;-56
2023/10/17 02:29:31;0.00;0.00;0.62;0.00;0.00;0.62;2.53;2.00;;;23.10;26.30;;;;;;2268384;61;20808;-59
2023/10/17 02:32:18;0.00;0.00;0.62;0.00;0.00;0.62;2.87;2.20;;;23.10;26.30;;;;;;2268461;61;21010;-58
2023/10/17 02:35:05;0.00;0.00;0.62;0.00;0.00;0.62;2.53;2.10;;;23.10;26.30;;;;;;2265550;61;20494;-57
2023/10/17 02:37:49;0.00;0.00;0.62;0.00;0.00;0.62;3.93;2.53;;;23.10;26.30;;;;;;2268534;61;20371;-63
2023/10/17 02:40:34;0.00;0.00;0.62;0.00;0.00;0.62;2.67;2.10;;;23.10;26.30;;;;;;2268549;61;20468;-58
2023/10/17 02:43:19;0.00;0.00;0.62;0.00;0.00;0.62;3.17;2.37;;;23.00;26.30;;;;;;2268607;61;20391;-60
2023/10/17 02:46:06;0.00;0.00;0.62;0.00;0.00;0.62;3.27;2.50;;;23.00;26.20;;;;;;2268671;61;20367;-62
2023/10/17 02:48:53;0.00;0.00;0.62;0.00;0.00;0.62;2.90;2.30;;;23.10;26.30;;;;;;2268573;61;20359;-59
2023/10/17 02:51:38;0.00;0.00;0.62;0.00;0.00;0.62;3.10;2.03;;;23.00;26.20;;;;;;2268678;61;20809;-58
2023/10/17 02:54:27;0.00;0.00;0.62;0.00;0.00;0.62;2.80;1.90;;;23.00;26.30;;;;;;2268432;61;20399;-62
2023/10/17 02:57:11;0.00;0.00;0.62;0.00;0.00;0.62;2.30;1.80;;;23.10;26.30;;;;;;2268756;61;20367;-60
2023/10/17 03:00:07;0.00;0.00;0.62;0.00;0.00;0.62;2.60;2.23;;;23.00;26.20;;;;;;2268353;61;20895;-60
2023/10/17 03:02:52;0.00;0.00;0.62;0.00;0.00;0.62;2.73;2.07;;;23.00;26.30;;;;;;2268365;61;20563;-62
2023/10/17 03:05:40;0.00;0.00;0.62;0.00;0.00;0.62;2.60;1.87;;;23.10;26.30;;;;;;2265662;61;20449;-63
2023/10/17 03:08:24;0.00;0.00;0.62;0.00;0.00;0.62;2.70;1.93;;;23.00;26.20;;;;;;2264503;61;20899;-57
2023/10/17 03:11:16;0.00;0.00;0.62;0.00;0.00;0.62;2.23;1.70;;;23.00;26.20;;;;;;2268510;61;20362;-61
2023/10/17 03:14:10;0.00;0.00;0.62;0.00;0.00;0.62;2.43;1.80;;;23.00;26.20;;;;;;2265220;61;20816;-63
2023/10/17 03:16:55;0.00;0.00;0.62;0.00;0.00;0.62;2.27;1.80;;;23.00;26.20;;;;;;2268355;61;20413;-60
2023/10/17 03:19:39;0.00;0.00;0.62;0.00;0.00;0.62;2.57;1.77;;;23.00;26.20;;;;;;2265205;61;20410;-59
2023/10/17 03:22:27;0.00;0.00;0.62;0.00;0.00;0.62;2.50;1.83;;;23.00;26.20;;;;;;2265323;61;20434;-61
2023/10/17 03:25:20;0.00;0.00;0.62;0.00;0.00;0.62;2.33;1.73;;;23.00;26.20;;;;;;2268585;61;20371;-58
2023/10/17 03:28:09;0.00;0.00;0.62;0.00;0.00;0.62;2.30;1.53;;;23.00;26.20;;;;;;2264914;61;20823;-60
2023/10/17 03:30:54;0.00;0.00;0.62;0.00;0.00;0.62;2.60;1.83;;;23.00;26.20;;;;;;2265033;61;20363;-60
2023/10/17 03:33:40;0.00;0.00;0.62;0.00;0.00;0.62;2.37;2.00;;;23.00;26.20;;;;;;2265382;61;20930;-59
2023/10/17 03:39:28;0.00;0.00;0.62;0.00;0.00;0.62;2.30;1.70;;;23.00;26.20;;;;;;2264694;61;20356;-59
2023/10/17 03:42:29;0.00;0.00;0.62;0.00;0.00;0.62;2.00;1.67;;;23.00;26.20;;;;;;2268506;61;20927;-58
2023/10/17 03:45:18;0.00;0.00;0.62;0.00;0.00;0.62;2.30;2.07;;;23.00;26.30;;;;;;2268505;61;20418;-56
2023/10/17 03:48:15;0.00;0.00;0.62;0.00;0.00;0.62;2.40;1.90;;;23.00;26.20;;;;;;2268257;61;20498;-60
2023/10/17 03:51:08;0.00;0.00;0.62;0.00;0.00;0.62;2.13;1.70;;;23.00;26.30;;;;;;2268446;61;20383;-62
2023/10/17 03:53:53;0.00;0.00;0.62;0.00;0.00;0.62;2.70;1.90;;;23.00;26.30;;;;;;2268236;61;20742;-61
2023/10/17 03:56:45;0.00;0.00;0.62;0.00;0.00;0.62;2.20;1.80;;;23.00;26.30;;;;;;2268385;61;20375;-64
2023/10/17 03:59:38;0.00;0.00;0.62;0.00;0.00;0.62;2.30;1.93;;;23.00;26.30;;;;;;2268088;61;20486;-60
2023/10/17 04:02:24;0.00;0.00;0.62;0.00;0.00;0.62;2.20;1.80;;;23.00;26.30;;;;;;2268284;61;20423;-58
2023/10/17 04:05:16;0.00;0.00;0.62;0.00;0.00;0.62;2.30;1.60;;;23.00;26.30;;;;;;2268486;61;20359;-57
2023/10/17 04:08:02;0.00;0.00;0.62;0.00;0.00;0.62;2.20;1.80;;;23.00;26.30;;;;;;2267924;61;20401;-63
2023/10/17 04:10:49;0.00;0.00;0.62;0.00;0.00;0.62;2.30;1.90;;;22.90;26.20;;;;;;2268551;61;20764;-58
2023/10/17 04:13:37;0.00;0.00;0.62;0.00;0.00;0.62;2.43;1.80;;;23.00;26.30;;;;;;2268478;61;20452;-63
2023/10/17 04:19:18;0.00;0.00;0.62;0.00;0.00;0.62;2.50;1.77;;;22.90;26.20;;;;;;2268173;61;20363;-59
2023/10/17 04:22:07;0.00;0.00;0.62;0.00;0.00;0.62;2.20;1.70;;;22.90;26.20;;;;;;2268611;61;20398;-65
2023/10/17 04:24:51;0.00;0.00;0.62;0.00;0.00;0.62;2.00;1.50;;;22.90;26.20;;;;;;2268458;61;20443;-65
2023/10/17 04:27:36;0.00;0.00;0.62;0.00;0.00;0.62;2.53;1.70;;;22.90;26.20;;;;;;2268286;61;20764;-65
2023/10/17 04:30:29;0.00;0.00;0.62;0.00;0.00;0.62;2.53;1.73;;;22.90;26.20;;;;;;2261964;61;20359;-65
2023/10/17 04:33:13;0.00;0.00;0.62;0.00;0.00;0.62;2.30;1.57;;;22.90;26.20;;;;;;2268334;61;20423;-65
2023/10/17 04:35:59;0.00;0.00;0.62;0.00;0.00;0.62;2.00;1.50;;;22.90;26.20;;;;;;2265059;61;20398;-65
2023/10/17 04:38:46;0.00;0.00;0.62;0.00;0.00;0.62;2.20;1.67;;;22.90;26.20;;;;;;2267553;61;20887;-68
2023/10/17 04:41:41;0.00;0.00;0.62;0.00;0.00;0.62;2.37;1.87;;;22.90;26.20;;;;;;2268502;61;20459;-65
2023/10/17 04:44:31;0.00;0.00;0.62;0.00;0.00;0.62;2.57;1.67;;;22.90;26.20;;;;;;2268478;61;20371;-66
2023/10/17 04:50:11;0.00;0.00;0.62;0.00;0.00;0.62;2.20;1.80;;;22.90;26.20;;;;;;2267868;61;20455;-65
2023/10/17 04:52:57;0.00;0.00;0.62;0.00;0.00;0.62;2.10;1.40;;;22.90;26.20;;;;;;2268017;61;20390;-65
2023/10/17 04:56:00;0.00;0.00;0.62;0.00;0.00;0.62;2.80;1.80;;;22.90;26.20;;;;;;2268248;61;20366;-65
2023/10/17 05:01:53;0.00;0.00;0.62;0.00;0.00;0.62;2.60;2.10;;;22.90;26.20;;;;;;2268887;61;20370;-66
2023/10/17 05:05:38;0.00;0.00;0.62;0.00;0.00;0.62;3.20;2.57;;;22.80;26.10;;;;;;2269089;61;20408;-64
2023/10/17 06:17:40;0.00;0.00;0.62;0.00;0.00;0.62;4.90;4.13;;;22.70;26.10;;;;;;2264597;61;20513;-65
2023/10/17 06:20:44;0.00;0.00;0.62;0.00;0.00;0.62;5.53;4.90;;;22.70;26.10;;;;;;2264822;61;20774;-66
2023/10/17 06:26:58;0.00;0.00;0.62;0.00;0.00;0.62;6.10;4.77;;;22.70;26.10;;;;;;2261964;61;20447;-64
2023/10/17 06:35:23;0.00;0.00;0.62;0.00;0.00;0.62;5.83;4.80;;;22.70;26.10;;;;;;2260627;61;20889;-64
2023/10/17 06:38:08;0.00;0.00;0.62;0.00;0.00;0.62;6.17;4.77;;;22.70;26.20;;;;;;2260371;61;20365;-64
2023/10/17 06:40:53;0.00;0.00;0.62;0.00;0.00;0.62;5.93;5.00;;;22.70;26.10;;;;;;2260664;61;20365;-64
2023/10/17 06:43:40;0.00;0.00;0.62;0.00;0.00;0.62;5.60;4.70;;;22.70;26.10;;;;;;2260358;61;20388;-64
2023/10/17 06:46:40;0.00;0.00;0.62;0.00;0.00;0.62;4.87;4.20;;;22.70;26.10;;;;;;2260737;61;20499;-65
2023/10/17 06:50:01;0.00;0.00;0.62;0.00;0.00;0.62;6.43;4.60;;;22.70;26.10;;;;;;2260337;61;20364;-63
2023/10/17 06:55:42;0.00;0.00;0.62;0.00;0.00;0.62;6.50;4.70;;;22.70;26.10;;;;;;2260699;61;20365;-64
2023/10/17 06:58:27;0.00;0.00;0.62;0.00;0.00;0.62;5.57;4.40;;;22.70;26.10;;;;;;2259982;61;21114;-64
2023/10/17 07:01:24;0.00;0.00;0.62;0.00;0.00;0.62;6.40;4.50;;;22.70;26.10;;;;;;2260883;61;20369;-64
2023/10/17 07:04:11;0.00;0.00;0.62;0.00;0.00;0.62;4.50;4.03;;;22.70;26.10;;;;;;2260580;61;20802;-64
2023/10/17 07:06:55;0.00;0.00;0.62;0.00;0.00;0.62;4.73;3.50;;;22.70;26.10;;;;;;2260252;61;20364;-64
2023/10/17 07:09:42;0.00;0.00;0.62;0.00;0.00;0.62;5.90;4.30;;;22.70;26.10;;;;;;2260458;61;20443;-64
2023/10/17 07:12:26;0.00;0.00;0.62;0.00;0.00;0.62;5.00;4.00;;;22.70;26.10;;;;;;2260511;61;20841;-62
2023/10/17 07:15:21;0.00;0.00;0.62;0.00;0.00;0.62;4.70;4.20;;;22.70;26.10;;;;;;2260325;61;20365;-64
2023/10/17 07:24:06;0.00;0.00;0.62;0.00;0.00;0.62;6.20;5.00;;;22.70;26.10;;;;;;2261066;61;20437;-65
2023/10/17 07:26:54;0.00;0.00;0.62;0.00;0.00;0.62;4.87;3.57;;;22.70;26.10;;;;;;2264570;61;20449;-65
2023/10/17 07:29:45;0.00;0.00;0.62;0.00;0.00;0.62;4.43;3.93;;;22.60;26.10;;;;;;2264065;61;20408;-64
2023/10/17 07:32:33;0.00;0.00;0.62;0.00;0.00;0.62;4.07;3.67;;;22.60;26.10;;;;;;2272498;55;20411;-68
2023/10/17 07:35:25;0.00;0.00;0.62;0.00;0.00;0.62;5.70;4.57;;;22.70;26.20;;;;;;2273705;61;20441;-64
2023/10/17 07:38:14;0.00;0.00;0.62;0.00;0.00;0.62;5.27;4.17;;;22.60;26.10;;;;;;2272194;61;20370;-68
2023/10/17 07:40:58;0.00;0.00;0.62;0.00;0.00;0.62;4.77;3.50;;;22.70;26.20;;;;;;2272568;61;20362;-63
2023/10/17 07:43:57;0.00;0.00;0.62;0.00;0.00;0.62;4.57;3.60;;;22.70;26.20;;;;;;2273181;60;20470;-64
2023/10/17 07:46:44;0.00;0.00;0.62;0.00;0.00;0.62;3.90;3.10;;;22.60;26.10;;;;;;2276914;60;20766;-69
2023/10/17 07:49:29;0.00;0.00;0.62;0.00;0.00;0.62;4.57;3.63;;;22.60;26.10;;;;;;2657799;45;20416;-64
2023/10/17 07:55:34;0.00;0.00;0.62;0.00;0.00;0.62;4.60;3.97;;;22.70;26.20;;;;;;2278123;60;20369;-63
2023/10/17 08:01:31;0.00;0.00;0.62;0.00;0.00;0.62;4.00;3.60;;;22.70;26.20;;;;;;2276608;60;20403;-64
2023/10/17 08:07:03;0.00;0.00;0.62;0.00;0.00;0.62;5.00;3.97;;;22.70;26.20;;;;;;2272579;61;20689;-64
2023/10/17 08:09:56;0.00;0.00;0.62;0.00;0.00;0.62;4.23;3.47;;;22.60;26.10;;;;;;2272251;61;20421;-66
2023/10/17 08:12:42;0.00;0.00;0.62;0.00;0.00;0.62;4.00;3.50;;;22.60;26.10;;;;;;2272210;61;20410;-63
2023/10/17 08:15:36;0.00;0.00;0.62;0.00;0.00;0.62;4.10;3.70;;;22.70;26.20;;;;;;2272377;61;20366;-63
2023/10/17 08:18:28;0.00;0.00;0.62;0.00;0.00;0.62;4.53;3.43;;;22.60;26.20;;;;;;2272070;61;20638;-66
2023/10/17 08:24:06;0.00;0.00;0.62;0.00;0.00;0.62;3.93;3.30;;;22.70;26.20;;;;;;2272416;61;20378;-64
2023/10/17 08:27:12;0.00;0.00;0.62;0.00;0.00;0.62;4.73;3.20;;;22.70;26.30;;;;;;2272301;61;20440;-64
2023/10/17 08:30:05;0.00;0.00;0.62;0.00;0.00;0.62;4.57;3.67;;;22.60;26.20;;;;;;2272061;60;20422;-64
2023/10/17 08:33:11;0.00;0.00;0.62;0.00;0.00;0.62;5.17;4.20;;;22.70;26.30;;;;;;2269987;61;20381;-64
2023/10/17 08:36:01;0.00;0.00;0.62;0.00;0.00;0.62;4.23;3.17;;;22.60;26.20;;;;;;2269834;61;20401;-65
2023/10/17 08:38:47;0.00;0.00;0.62;0.00;0.00;0.62;4.40;3.90;;;22.70;26.30;;;;;;2272947;61;20366;-64
2023/10/17 08:41:31;0.00;0.00;0.62;0.00;0.00;0.62;4.70;3.90;;;22.60;26.20;;;;;;2273015;61;20780;-64
2023/10/17 08:44:19;0.00;0.00;0.62;0.00;0.00;0.62;5.33;4.30;;;22.70;26.30;;;;;;2273040;61;20436;-65
2023/10/17 08:47:05;0.00;0.00;0.62;0.00;0.00;0.62;5.53;4.43;;;22.70;26.30;;;;;;2272984;61;20878;-64
2023/10/17 08:49:49;0.00;0.00;0.62;0.00;0.00;0.62;5.17;3.97;;;22.70;26.30;;;;;;2272526;61;20366;-63
2023/10/17 08:52:35;0.00;0.00;0.62;0.00;0.00;0.62;4.37;3.70;;;22.70;26.30;;;;;;2272972;61;20424;-65
2023/10/17 08:55:21;0.00;0.00;0.62;0.00;0.00;0.62;5.53;4.93;;;22.70;26.30;;;;;;2273106;61;20751;-66
2023/10/17 08:58:08;0.00;0.00;0.62;0.00;0.00;0.62;5.30;4.13;;;22.70;26.30;;;;;;2272265;61;20398;-66
2023/10/17 09:00:55;0.00;0.00;0.62;0.00;0.00;0.62;4.70;4.20;;;22.70;26.30;;;;;;2272994;61;20512;-64
2023/10/17 09:03:46;0.00;0.00;0.62;0.00;0.00;0.62;5.00;4.23;;;22.70;26.30;;;;;;2269262;61;20389;-65
2023/10/17 09:06:37;0.00;0.00;0.62;0.00;0.00;0.62;5.00;3.57;;;22.70;26.30;;;;;;2272977;61;20362;-64
2023/10/17 09:09:21;0.00;0.00;0.62;0.00;0.00;0.62;6.27;4.37;;;22.70;26.30;;;;;;2272567;61;20895;-65
2023/10/17 09:12:21;0.00;0.00;0.62;0.00;0.00;0.62;5.10;4.60;;;22.70;26.30;;;;;;2272825;61;20861;-65
2023/10/17 09:15:17;0.00;0.00;0.62;0.00;0.00;0.62;4.07;3.57;;;22.70;26.30;;;;;;2273107;61;20449;-66
2023/10/17 09:18:07;0.00;0.00;0.62;0.00;0.00;0.62;4.33;3.90;;;22.60;26.30;;;;;;2272567;61;20411;-65
2023/10/17 09:20:53;0.00;0.00;0.62;0.00;0.00;0.62;5.90;4.93;;;22.70;26.30;;;;;;2272934;61;20412;-65
2023/10/17 09:23:38;0.00;0.00;0.62;0.00;0.00;0.62;5.23;4.53;;;22.70;26.30;;;;;;2270150;61;20394;-65
2023/10/17 09:26:23;0.00;0.00;0.62;0.00;0.00;0.62;5.10;4.60;;;22.70;26.30;;;;;;2272699;61;20370;-65
2023/10/17 09:29:08;0.00;0.00;0.62;0.00;0.00;0.62;5.13;4.07;;;22.70;26.40;;;;;;2272584;61;20365;-64
2023/10/17 09:31:53;0.00;0.00;0.62;0.00;0.00;0.62;4.63;4.13;;;22.70;26.40;;;;;;2272936;61;20386;-65
2023/10/17 09:34:42;0.00;0.00;0.62;0.00;0.00;0.62;5.40;4.90;;;22.70;26.40;;;;;;2272794;61;20439;-65
2023/10/17 09:37:28;0.00;0.00;0.62;0.00;0.00;0.62;5.73;5.10;;;22.70;26.40;;;;;;2273009;61;20367;-65
2023/10/17 09:40:18;0.00;0.00;0.62;0.00;0.00;0.62;6.67;5.07;;;22.70;26.40;;;;;;2273047;61;20404;-66
2023/10/17 09:43:03;0.00;0.00;0.62;0.00;0.00;0.62;6.20;4.13;;;22.70;26.40;;;;;;2269465;61;20389;-69
2023/10/17 09:45:52;0.00;0.00;0.62;0.00;0.00;0.62;5.40;4.57;;;22.70;26.40;;;;;;2272997;61;20362;-65
2023/10/17 09:48:41;0.00;0.00;0.62;0.00;0.00;0.62;5.80;4.83;;;22.70;26.40;;;;;;2272325;61;20365;-65
2023/10/17 09:51:31;0.00;0.00;0.62;0.00;0.00;0.62;5.97;5.10;;;22.70;26.40;;;;;;2272942;61;20768;-65
2023/10/17 09:54:21;0.00;0.00;0.62;0.00;0.00;0.62;5.83;5.07;;;22.70;26.40;;;;;;2272747;61;20370;-65
2023/10/17 09:57:12;0.00;0.00;0.62;0.00;0.00;0.62;5.97;5.03;;;22.80;26.50;;;;;;2272653;61;20399;-65
2023/10/17 10:00:14;0.00;0.00;0.62;0.00;0.00;0.62;7.60;4.20;;;22.80;26.50;;;;;;2272510;61;20827;-67
2023/10/17 10:03:00;0.00;0.00;0.62;0.00;0.00;0.62;5.80;4.87;;;22.80;26.40;;;;;;2351391;39;20475;-65
2023/10/17 10:05:44;0.00;0.00;0.62;0.00;0.00;0.62;5.30;4.73;;;22.70;26.40;;;;;;2272966;61;20385;-65
2023/10/17 10:08:33;0.00;0.00;0.62;0.00;0.00;0.62;5.47;4.57;;;22.70;26.40;;;;;;2272660;61;20899;-65
2023/10/17 10:11:19;0.00;0.00;0.62;0.00;0.00;0.62;4.83;4.43;;;22.80;26.40;;;;;;2273113;61;20362;-65
2023/10/17 10:14:11;0.00;0.00;0.62;0.00;0.00;0.62;4.87;4.30;;;22.80;26.40;;;;;;2268828;61;20363;-67
2023/10/17 10:16:59;0.00;0.00;0.62;0.00;0.00;0.62;6.23;4.77;;;22.80;26.40;;;;;;2269086;61;20359;-65
2023/10/17 10:20:00;0.00;0.00;0.62;0.00;0.00;0.62;5.10;4.60;;;22.80;26.40;;;;;;2268579;61;20782;-65
2023/10/17 10:22:50;0.00;0.00;0.62;0.00;0.00;0.62;4.93;4.23;;;22.80;26.50;;;;;;2269078;61;20693;-65
2023/10/17 10:25:35;0.00;0.00;0.62;0.00;0.00;0.62;5.57;3.90;;;22.80;26.40;;;;;;2268195;61;20367;-65
2023/10/17 10:28:29;0.00;0.00;0.62;0.00;0.00;0.62;6.10;4.83;;;22.80;26.40;;;;;;2268671;61;20362;-66
2023/10/17 10:31:39;0.00;0.00;0.62;0.00;0.00;0.62;4.90;4.40;;;22.80;26.50;;;;;;2268947;61;20490;-65
2023/10/17 10:34:23;0.00;0.00;0.62;0.00;0.00;0.62;5.90;4.97;;;22.80;26.40;;;;;;2268671;61;20426;-65
2023/10/17 10:37:13;0.00;0.00;0.62;0.00;0.00;0.62;5.93;4.63;;;22.80;26.40;;;;;;2269006;61;20391;-65
2023/10/17 10:40:16;0.00;0.00;0.62;0.00;0.00;0.62;6.60;4.00;;;22.80;26.50;;;;;;2268335;61;20931;-65
2023/10/17 10:43:01;0.00;0.00;0.62;0.00;0.00;0.62;4.70;4.03;;;22.80;26.40;;;;;;2268744;61;20379;-65
2023/10/17 10:45:49;0.00;0.00;0.62;0.00;0.00;0.62;5.03;4.47;;;22.80;26.40;;;;;;2268746;61;20358;-64
2023/10/17 10:48:33;0.00;0.00;0.62;0.00;0.00;0.62;5.27;4.67;;;22.80;26.50;;;;;;2268369;61;20375;-66
2023/10/17 10:51:18;0.00;0.00;0.62;0.00;0.00;0.62;4.10;3.70;;;22.80;26.50;;;;;;2268749;61;20884;-65
2023/10/17 10:54:04;0.00;0.00;0.62;0.00;0.00;0.62;4.30;3.70;;;22.80;26.40;;;;;;2268696;61;20363;-65
2023/10/17 10:56:51;0.00;0.00;0.62;0.00;0.00;0.62;4.83;3.63;;;22.80;26.40;;;;;;2268594;61;20362;-65
2023/10/17 10:59:36;0.00;0.00;0.62;0.00;0.00;0.62;4.77;3.80;;;22.80;26.50;;;;;;2268540;61;20366;-65
2023/10/17 11:02:23;0.00;0.00;0.62;0.00;0.00;0.62;5.33;4.03;;;22.80;26.40;;;;;;2268632;61;20693;-65
2023/10/17 11:05:13;0.00;0.00;0.62;0.00;0.00;0.62;4.50;3.50;;;22.80;26.40;;;;;;2268828;61;20378;-65
2023/10/17 11:08:01;0.00;0.00;0.62;0.00;0.00;0.62;4.43;3.93;;;22.80;26.40;;;;;;2268402;61;20387;-63
2023/10/17 11:10:46;0.00;0.00;0.62;0.00;0.00;0.62;5.17;4.17;;;22.80;26.40;;;;;;2268603;61;20394;-65
2023/10/17 11:13:34;0.00;0.00;0.62;0.00;0.00;0.62;5.30;3.83;;;22.80;26.50;;;;;;2268864;61;20377;-64
2023/10/17 11:16:21;0.00;0.00;0.62;0.00;0.00;0.62;4.87;2.90;;;22.80;26.40;;;;;;2268978;61;20370;-65
2023/10/17 11:19:19;0.00;0.00;0.62;0.00;0.00;0.62;3.80;3.20;;;22.80;26.50;;;;;;2268057;61;20453;-67
2023/10/17 11:22:04;0.00;0.00;0.62;0.00;0.00;0.62;4.23;3.37;;;22.80;26.40;;;;;;2268877;61;20927;-65
2023/10/17 11:24:48;0.00;0.00;0.62;0.00;0.00;0.62;5.00;4.10;;;22.80;26.40;;;;;;2268466;61;20383;-68
2023/10/17 11:27:34;0.00;0.00;0.62;0.00;0.00;0.62;8.40;3.20;;;22.80;26.40;;;;;;2268983;61;20945;-66
2023/10/17 11:30:20;0.00;0.00;0.62;0.00;0.00;0.62;4.20;3.50;;;22.80;26.50;;;;;;2268905;61;20936;-65
2023/10/17 11:33:11;0.00;0.00;0.62;0.00;0.00;0.62;3.13;2.83;;;22.80;26.40;;;;;;2265261;61;20426;-65
2023/10/17 11:36:03;0.00;0.00;0.62;0.00;0.00;0.62;4.70;3.03;;;22.80;26.50;;;;;;2268823;61;20366;-65
2023/10/17 11:38:55;0.00;0.00;0.62;0.00;0.00;0.62;4.30;3.73;;;22.80;26.50;;;;;;2268340;61;20948;-65
2023/10/17 11:41:46;0.00;0.00;0.62;0.00;0.00;0.62;4.03;3.63;;;22.80;26.50;;;;;;2265615;61;20395;-65
2023/10/17 11:44:31;0.00;0.00;0.62;0.00;0.00;0.62;4.10;3.70;;;22.80;26.40;;;;;;2265439;61;20477;-65
2023/10/17 11:47:22;0.00;0.00;0.62;0.00;0.00;0.62;4.23;3.67;;;22.80;26.40;;;;;;2268517;61;20363;-64
2023/10/17 11:50:08;0.00;0.00;0.62;0.00;0.00;0.62;3.73;3.40;;;22.80;26.40;;;;;;2268419;61;20364;-70
2023/10/17 11:52:54;0.00;0.00;0.62;0.00;0.00;0.62;4.27;3.87;;;22.80;26.40;;;;;;2265628;61;20867;-64
2023/10/17 11:55:45;0.00;0.00;0.62;0.00;0.00;0.62;4.23;3.77;;;22.90;26.60;;;;;;2268590;61;21196;-66
2023/10/17 11:58:30;0.00;0.00;0.62;0.00;0.00;0.62;3.80;3.17;;;22.90;27.10;;;;;;2268519;61;20363;-65
2023/10/17 12:01:16;0.00;0.00;0.62;0.00;0.00;0.62;3.60;3.30;;;22.90;26.50;;;;;;2268617;61;20500;-65
2023/10/17 12:04:06;0.00;0.00;0.62;0.00;0.00;0.62;3.40;3.10;;;22.90;26.60;;;;;;2268605;61;20406;-65
2023/10/17 12:06:50;0.00;0.00;0.62;0.00;0.00;0.62;4.80;3.77;;;22.90;26.50;;;;;;2268660;61;20922;-65
2023/10/17 12:09:36;0.00;0.00;0.62;0.00;0.00;0.62;4.07;3.60;;;22.90;26.50;;;;;;2268078;61;20449;-66
2023/10/17 12:12:22;0.00;0.00;0.62;0.00;0.00;0.62;3.90;3.60;;;22.90;26.60;;;;;;2268595;61;20383;-65
2023/10/17 12:15:13;0.00;0.00;0.62;0.00;0.00;0.62;4.03;3.63;;;22.90;26.60;;;;;;2268331;61;20363;-66
2023/10/17 12:17:58;0.00;0.00;0.62;0.00;0.00;0.62;3.57;3.27;;;22.90;26.60;;;;;;2268215;61;20356;-64
2023/10/17 12:20:42;0.00;0.00;0.62;0.00;0.00;0.62;3.40;3.07;;;22.90;26.60;;;;;;2268637;61;20830;-66
2023/10/17 12:23:30;0.00;0.00;0.62;0.00;0.00;0.62;3.80;3.37;;;22.90;26.60;;;;;;2268379;61;20927;-65
2023/10/17 12:26:19;0.00;0.00;0.62;0.00;0.00;0.62;4.10;3.13;;;22.90;26.60;;;;;;2268519;61;20372;-68
2023/10/17 12:29:03;0.00;0.00;0.62;0.00;0.00;0.62;3.53;3.20;;;22.90;26.50;;;;;;2268348;61;20409;-65
2023/10/17 12:31:48;0.00;0.00;0.62;0.00;0.00;0.62;3.50;3.10;;;22.90;26.60;;;;;;2268144;61;20471;-65
2023/10/17 12:34:33;0.00;0.00;0.62;0.00;0.00;0.62;3.47;3.17;;;22.90;26.60;;;;;;2268603;61;20367;-65
2023/10/17 12:37:17;0.00;0.00;0.62;0.00;0.00;0.62;3.80;3.40;;;22.90;26.60;;;;;;2268782;61;20367;-65
2023/10/17 12:40:05;0.00;0.00;0.62;0.00;0.00;0.62;3.77;3.40;;;22.90;26.60;;;;;;2268095;61;20366;-64
2023/10/17 12:42:54;0.00;0.00;0.62;0.00;0.00;0.62;3.90;3.10;;;22.90;26.60;;;;;;2268451;61;20383;-65
2023/10/17 12:45:39;0.00;0.00;0.62;0.00;0.00;0.62;3.67;3.37;;;22.90;26.60;;;;;;2268563;61;20364;-65
2023/10/17 12:48:23;0.00;0.00;0.62;0.00;0.00;0.62;4.30;3.90;;;22.90;26.60;;;;;;2268056;61;20405;-67
2023/10/17 12:51:11;0.00;0.00;0.62;0.00;0.00;0.62;3.80;3.40;;;22.90;26.60;;;;;;2268549;61;20420;-65
2023/10/17 12:53:56;0.00;0.00;0.62;0.00;0.00;0.62;3.43;2.87;;;22.90;26.60;;;;;;2268324;61;20840;-64
2023/10/17 12:56:40;0.00;0.00;0.62;0.00;0.00;0.62;3.30;2.97;;;22.90;26.60;;;;;;2268490;61;20417;-65
2023/10/17 12:59:26;0.00;0.00;0.62;0.00;0.00;0.62;3.43;2.87;;;22.90;26.60;;;;;;2268110;61;20371;-64
2023/10/17 13:02:12;0.00;0.00;0.62;0.00;0.00;0.62;3.10;2.63;;;22.90;26.60;;;;;;2268388;61;20407;-65